sensor_id;sensor_type;location;lat;lon;timestamp;P1;durP1;ratioP1;P2;durP2;ratioP2
71679;SDS011;59512;42.662;23.254;2023-01-08T00:01:55;44.78;;;25.60;;
71679;SDS011;59512;42.662;23.254;2023-01-08T00:04:20;51.10;;;28.10;;
71679;SDS011;59512;42.662;23.254;2023-01-08T00:06:46;42.93;;;23.93;;
71679;SDS011;59512;42.662;23.254;2023-01-08T00:09:11;46.83;;;25.93;;
71679;SDS011;59512;42.662;23.254;2023-01-08T00:11:37;42.30;;;23.60;;
71679;SDS011;59512;42.662;23.254;2023-01-08T00:14:02;43.38;;;23.75;;
71679;SDS011;59512;42.662;23.254;2023-01-08T00:16:28;50.90;;;26.37;;
71679;SDS011;59512;42.662;23.254;2023-01-08T00:18:53;48.38;;;26.70;;
71679;SDS011;59512;42.662;23.254;2023-01-08T00:21:19;39.20;;;20.83;;
71679;SDS011;59512;42.662;23.254;2023-01-08T00:23:45;42.80;;;23.43;;
71679;SDS011;59512;42.662;23.254;2023-01-08T00:26:11;36.13;;;19.50;;
71679;SDS011;59512;42.662;23.254;2023-01-08T00:28:37;41.20;;;21.50;;
71679;SDS011;59512;42.662;23.254;2023-01-08T00:31:03;34.77;;;19.40;;
71679;SDS011;59512;42.662;23.254;2023-01-08T00:33:29;39.47;;;20.60;;
71679;SDS011;59512;42.662;23.254;2023-01-08T00:35:55;34.83;;;20.20;;
71679;SDS011;59512;42.662;23.254;2023-01-08T00:38:25;32.07;;;17.20;;
71679;SDS011;59512;42.662;23.254;2023-01-08T00:40:50;32.00;;;17.60;;
71679;SDS011;59512;42.662;23.254;2023-01-08T00:43:16;48.40;;;24.37;;
71679;SDS011;59512;42.662;23.254;2023-01-08T00:45:41;36.07;;;18.50;;
71679;SDS011;59512;42.662;23.254;2023-01-08T00:48:07;36.05;;;19.45;;
71679;SDS011;59512;42.662;23.254;2023-01-08T00:50:32;37.77;;;19.40;;
71679;SDS011;59512;42.662;23.254;2023-01-08T00:52:58;37.00;;;20.17;;
71679;SDS011;59512;42.662;23.254;2023-01-08T00:55:23;34.47;;;18.87;;
71679;SDS011;59512;42.662;23.254;2023-01-08T00:57:48;26.07;;;15.37;;
71679;SDS011;59512;42.662;23.254;2023-01-08T01:00:14;32.07;;;17.57;;
71679;SDS011;59512;42.662;23.254;2023-01-08T01:02:40;35.78;;;19.05;;
71679;SDS011;59512;42.662;23.254;2023-01-08T01:05:06;37.75;;;18.48;;
71679;SDS011;59512;42.662;23.254;2023-01-08T01:07:33;38.20;;;20.17;;
71679;SDS011;59512;42.662;23.254;2023-01-08T01:09:59;33.90;;;17.20;;
71679;SDS011;59512;42.662;23.254;2023-01-08T01:12:24;30.45;;;15.93;;
71679;SDS011;59512;42.662;23.254;2023-01-08T01:14:50;26.05;;;13.75;;
71679;SDS011;59512;42.662;23.254;2023-01-08T01:17:15;23.93;;;13.63;;
71679;SDS011;59512;42.662;23.254;2023-01-08T01:19:40;27.70;;;13.40;;
71679;SDS011;59512;42.662;23.254;2023-01-08T01:22:07;24.02;;;13.23;;
71679;SDS011;59512;42.662;23.254;2023-01-08T01:24:32;23.67;;;12.30;;
71679;SDS011;59512;42.662;23.254;2023-01-08T01:26:58;21.03;;;11.13;;
71679;SDS011;59512;42.662;23.254;2023-01-08T01:29:23;24.42;;;12.13;;
71679;SDS011;59512;42.662;23.254;2023-01-08T01:31:49;21.58;;;11.73;;
71679;SDS011;59512;42.662;23.254;2023-01-08T01:34:14;21.57;;;10.47;;
71679;SDS011;59512;42.662;23.254;2023-01-08T01:36:40;19.03;;;10.00;;
71679;SDS011;59512;42.662;23.254;2023-01-08T01:39:05;24.93;;;11.73;;
71679;SDS011;59512;42.662;23.254;2023-01-08T01:41:35;18.80;;;10.30;;
71679;SDS011;59512;42.662;23.254;2023-01-08T01:49:35;21.95;;;11.48;;
71679;SDS011;59512;42.662;23.254;2023-01-08T01:52:00;21.85;;;10.95;;
71679;SDS011;59512;42.662;23.254;2023-01-08T01:54:28;21.08;;;10.50;;
71679;SDS011;59512;42.662;23.254;2023-01-08T01:56:55;18.60;;;9.77;;
71679;SDS011;59512;42.662;23.254;2023-01-08T01:59:20;20.48;;;10.20;;
71679;SDS011;59512;42.662;23.254;2023-01-08T02:01:46;18.20;;;9.83;;
71679;SDS011;59512;42.662;23.254;2023-01-08T02:04:13;18.52;;;9.45;;
71679;SDS011;59512;42.662;23.254;2023-01-08T02:06:45;19.55;;;10.43;;
71679;SDS011;59512;42.662;23.254;2023-01-08T02:09:41;21.40;;;11.67;;
71679;SDS011;59512;42.662;23.254;2023-01-08T02:17:12;22.00;;;10.77;;
71679;SDS011;59512;42.662;23.254;2023-01-08T02:19:55;19.73;;;10.80;;
71679;SDS011;59512;42.662;23.254;2023-01-08T02:25:30;19.38;;;10.27;;
71679;SDS011;59512;42.662;23.254;2023-01-08T02:28:02;21.42;;;11.40;;
71679;SDS011;59512;42.662;23.254;2023-01-08T02:30:29;17.50;;;9.70;;
71679;SDS011;59512;42.662;23.254;2023-01-08T02:32:55;23.10;;;10.33;;
71679;SDS011;59512;42.662;23.254;2023-01-08T02:35:20;19.60;;;10.00;;
71679;SDS011;59512;42.662;23.254;2023-01-08T02:37:45;16.73;;;8.90;;
71679;SDS011;59512;42.662;23.254;2023-01-08T02:40:31;19.63;;;9.97;;
71679;SDS011;59512;42.662;23.254;2023-01-08T02:43:00;19.65;;;9.32;;
71679;SDS011;59512;42.662;23.254;2023-01-08T02:48:23;18.35;;;8.75;;
71679;SDS011;59512;42.662;23.254;2023-01-08T02:51:07;17.80;;;9.00;;
71679;SDS011;59512;42.662;23.254;2023-01-08T02:53:41;17.77;;;9.02;;
71679;SDS011;59512;42.662;23.254;2023-01-08T02:56:13;17.85;;;9.43;;
71679;SDS011;59512;42.662;23.254;2023-01-08T02:58:41;17.57;;;9.37;;
71679;SDS011;59512;42.662;23.254;2023-01-08T03:01:08;19.70;;;11.15;;
71679;SDS011;59512;42.662;23.254;2023-01-08T03:03:35;19.33;;;9.60;;
71679;SDS011;59512;42.662;23.254;2023-01-08T03:06:03;18.23;;;10.15;;
71679;SDS011;59512;42.662;23.254;2023-01-08T03:08:32;16.60;;;9.98;;
71679;SDS011;59512;42.662;23.254;2023-01-08T03:11:01;17.03;;;9.43;;
71679;SDS011;59512;42.662;23.254;2023-01-08T03:16:32;20.35;;;11.02;;
71679;SDS011;59512;42.662;23.254;2023-01-08T03:19:02;20.27;;;10.68;;
71679;SDS011;59512;42.662;23.254;2023-01-08T03:21:31;20.80;;;10.65;;
71679;SDS011;59512;42.662;23.254;2023-01-08T03:23:57;19.70;;;10.50;;
71679;SDS011;59512;42.662;23.254;2023-01-08T03:26:23;17.08;;;9.13;;
71679;SDS011;59512;42.662;23.254;2023-01-08T03:28:54;19.20;;;10.07;;
71679;SDS011;59512;42.662;23.254;2023-01-08T03:31:19;17.42;;;9.70;;
71679;SDS011;59512;42.662;23.254;2023-01-08T03:33:45;19.15;;;9.95;;
71679;SDS011;59512;42.662;23.254;2023-01-08T03:36:12;23.00;;;10.75;;
71679;SDS011;59512;42.662;23.254;2023-01-08T03:38:42;17.98;;;9.60;;
71679;SDS011;59512;42.662;23.254;2023-01-08T03:41:10;18.13;;;9.47;;
71679;SDS011;59512;42.662;23.254;2023-01-08T03:43:38;19.17;;;10.20;;
71679;SDS011;59512;42.662;23.254;2023-01-08T03:46:05;16.95;;;9.80;;
71679;SDS011;59512;42.662;23.254;2023-01-08T03:48:33;19.70;;;9.98;;
71679;SDS011;59512;42.662;23.254;2023-01-08T03:50:59;22.02;;;10.18;;
71679;SDS011;59512;42.662;23.254;2023-01-08T03:53:24;18.07;;;9.27;;
71679;SDS011;59512;42.662;23.254;2023-01-08T03:55:50;16.27;;;10.10;;
71679;SDS011;59512;42.662;23.254;2023-01-08T03:58:15;16.27;;;9.10;;
71679;SDS011;59512;42.662;23.254;2023-01-08T04:00:41;16.38;;;9.15;;
71679;SDS011;59512;42.662;23.254;2023-01-08T04:03:06;17.20;;;9.37;;
71679;SDS011;59512;42.662;23.254;2023-01-08T04:05:32;16.50;;;9.23;;
71679;SDS011;59512;42.662;23.254;2023-01-08T04:07:57;14.97;;;8.60;;
71679;SDS011;59512;42.662;23.254;2023-01-08T04:10:23;15.48;;;8.55;;
71679;SDS011;59512;42.662;23.254;2023-01-08T04:12:49;17.20;;;7.85;;
71679;SDS011;59512;42.662;23.254;2023-01-08T04:15:15;14.18;;;8.05;;
71679;SDS011;59512;42.662;23.254;2023-01-08T04:17:40;14.93;;;8.10;;
71679;SDS011;59512;42.662;23.254;2023-01-08T04:20:06;13.85;;;7.72;;
71679;SDS011;59512;42.662;23.254;2023-01-08T04:22:32;14.67;;;8.53;;
71679;SDS011;59512;42.662;23.254;2023-01-08T04:24:57;15.63;;;8.10;;
71679;SDS011;59512;42.662;23.254;2023-01-08T04:27:23;17.55;;;10.48;;
71679;SDS011;59512;42.662;23.254;2023-01-08T04:29:48;16.97;;;8.40;;
71679;SDS011;59512;42.662;23.254;2023-01-08T04:32:13;18.93;;;8.63;;
71679;SDS011;59512;42.662;23.254;2023-01-08T04:34:39;21.00;;;9.10;;
71679;SDS011;59512;42.662;23.254;2023-01-08T04:37:04;18.30;;;9.30;;
71679;SDS011;59512;42.662;23.254;2023-01-08T04:39:30;17.23;;;9.18;;
71679;SDS011;59512;42.662;23.254;2023-01-08T04:41:55;15.30;;;8.63;;
71679;SDS011;59512;42.662;23.254;2023-01-08T04:44:21;17.87;;;9.93;;
71679;SDS011;59512;42.662;23.254;2023-01-08T04:46:46;15.53;;;9.13;;
71679;SDS011;59512;42.662;23.254;2023-01-08T04:49:12;19.63;;;9.40;;
71679;SDS011;59512;42.662;23.254;2023-01-08T04:51:37;17.35;;;9.10;;
71679;SDS011;59512;42.662;23.254;2023-01-08T04:54:03;19.70;;;10.27;;
71679;SDS011;59512;42.662;23.254;2023-01-08T04:56:28;19.85;;;10.48;;
71679;SDS011;59512;42.662;23.254;2023-01-08T04:58:55;19.33;;;10.03;;
71679;SDS011;59512;42.662;23.254;2023-01-08T05:01:22;19.83;;;11.57;;
71679;SDS011;59512;42.662;23.254;2023-01-08T05:03:55;24.23;;;14.73;;
71679;SDS011;59512;42.662;23.254;2023-01-08T05:06:22;17.57;;;8.80;;
71679;SDS011;59512;42.662;23.254;2023-01-08T05:08:47;16.95;;;8.90;;
71679;SDS011;59512;42.662;23.254;2023-01-08T05:11:13;17.97;;;9.43;;
71679;SDS011;59512;42.662;23.254;2023-01-08T05:13:38;17.23;;;9.57;;
71679;SDS011;59512;42.662;23.254;2023-01-08T05:16:04;18.83;;;9.98;;
71679;SDS011;59512;42.662;23.254;2023-01-08T05:18:29;19.67;;;10.80;;
71679;SDS011;59512;42.662;23.254;2023-01-08T05:21:01;17.70;;;10.50;;
71679;SDS011;59512;42.662;23.254;2023-01-08T05:23:27;24.35;;;12.10;;
71679;SDS011;59512;42.662;23.254;2023-01-08T05:25:57;21.17;;;11.32;;
71679;SDS011;59512;42.662;23.254;2023-01-08T05:28:27;23.85;;;11.90;;
71679;SDS011;59512;42.662;23.254;2023-01-08T05:30:53;26.17;;;12.80;;
71679;SDS011;59512;42.662;23.254;2023-01-08T05:33:19;23.63;;;13.05;;
71679;SDS011;59512;42.662;23.254;2023-01-08T05:35:44;22.02;;;12.13;;
71679;SDS011;59512;42.662;23.254;2023-01-08T05:38:10;19.63;;;11.77;;
71679;SDS011;59512;42.662;23.254;2023-01-08T05:40:35;23.47;;;11.97;;
71679;SDS011;59512;42.662;23.254;2023-01-08T05:43:01;24.97;;;12.37;;
71679;SDS011;59512;42.662;23.254;2023-01-08T05:45:26;22.10;;;11.90;;
71679;SDS011;59512;42.662;23.254;2023-01-08T05:47:52;23.57;;;12.43;;
71679;SDS011;59512;42.662;23.254;2023-01-08T05:50:18;32.03;;;16.10;;
71679;SDS011;59512;42.662;23.254;2023-01-08T05:52:44;23.33;;;13.63;;
71679;SDS011;59512;42.662;23.254;2023-01-08T05:55:09;34.67;;;16.23;;
71679;SDS011;59512;42.662;23.254;2023-01-08T05:57:35;31.95;;;16.55;;
71679;SDS011;59512;42.662;23.254;2023-01-08T06:00:00;35.43;;;17.67;;
71679;SDS011;59512;42.662;23.254;2023-01-08T06:02:26;30.48;;;14.48;;
71679;SDS011;59512;42.662;23.254;2023-01-08T06:04:51;27.70;;;15.18;;
71679;SDS011;59512;42.662;23.254;2023-01-08T06:07:16;34.93;;;18.30;;
71679;SDS011;59512;42.662;23.254;2023-01-08T06:09:42;35.67;;;17.63;;
71679;SDS011;59512;42.662;23.254;2023-01-08T06:12:07;36.37;;;18.83;;
71679;SDS011;59512;42.662;23.254;2023-01-08T06:14:33;35.17;;;18.03;;
71679;SDS011;59512;42.662;23.254;2023-01-08T06:16:58;37.30;;;18.03;;
71679;SDS011;59512;42.662;23.254;2023-01-08T06:19:23;31.15;;;16.60;;
71679;SDS011;59512;42.662;23.254;2023-01-08T06:21:49;31.75;;;18.42;;
71679;SDS011;59512;42.662;23.254;2023-01-08T06:24:14;30.47;;;17.07;;
71679;SDS011;59512;42.662;23.254;2023-01-08T06:26:40;37.63;;;20.37;;
71679;SDS011;59512;42.662;23.254;2023-01-08T06:29:05;33.77;;;17.93;;
71679;SDS011;59512;42.662;23.254;2023-01-08T06:31:30;32.57;;;16.93;;
71679;SDS011;59512;42.662;23.254;2023-01-08T06:33:56;33.43;;;17.63;;
71679;SDS011;59512;42.662;23.254;2023-01-08T06:36:21;30.40;;;15.68;;
71679;SDS011;59512;42.662;23.254;2023-01-08T06:38:47;26.30;;;14.38;;
71679;SDS011;59512;42.662;23.254;2023-01-08T06:41:12;25.63;;;14.30;;
71679;SDS011;59512;42.662;23.254;2023-01-08T06:43:38;26.43;;;15.00;;
71679;SDS011;59512;42.662;23.254;2023-01-08T06:46:04;29.47;;;15.33;;
71679;SDS011;59512;42.662;23.254;2023-01-08T06:48:30;29.75;;;17.13;;
71679;SDS011;59512;42.662;23.254;2023-01-08T06:50:58;31.47;;;18.80;;
71679;SDS011;59512;42.662;23.254;2023-01-08T06:53:23;58.15;;;34.10;;
71679;SDS011;59512;42.662;23.254;2023-01-08T06:55:49;58.73;;;31.70;;
71679;SDS011;59512;42.662;23.254;2023-01-08T06:58:20;41.72;;;23.85;;
71679;SDS011;59512;42.662;23.254;2023-01-08T07:00:45;44.42;;;23.27;;
71679;SDS011;59512;42.662;23.254;2023-01-08T07:03:10;38.63;;;22.10;;
71679;SDS011;59512;42.662;23.254;2023-01-08T07:05:36;38.73;;;22.37;;
71679;SDS011;59512;42.662;23.254;2023-01-08T07:08:01;40.80;;;25.27;;
71679;SDS011;59512;42.662;23.254;2023-01-08T07:10:27;36.37;;;22.87;;
71679;SDS011;59512;42.662;23.254;2023-01-08T07:12:52;44.92;;;25.23;;
71679;SDS011;59512;42.662;23.254;2023-01-08T07:15:18;38.37;;;22.70;;
71679;SDS011;59512;42.662;23.254;2023-01-08T07:17:43;42.30;;;24.77;;
71679;SDS011;59512;42.662;23.254;2023-01-08T07:20:09;42.90;;;25.27;;
71679;SDS011;59512;42.662;23.254;2023-01-08T07:22:35;45.08;;;28.15;;
71679;SDS011;59512;42.662;23.254;2023-01-08T07:25:00;44.20;;;25.73;;
71679;SDS011;59512;42.662;23.254;2023-01-08T07:27:25;40.70;;;23.30;;
71679;SDS011;59512;42.662;23.254;2023-01-08T07:29:51;43.15;;;25.80;;
71679;SDS011;59512;42.662;23.254;2023-01-08T07:32:16;49.25;;;26.73;;
71679;SDS011;59512;42.662;23.254;2023-01-08T07:34:42;48.93;;;27.37;;
71679;SDS011;59512;42.662;23.254;2023-01-08T07:37:07;49.90;;;28.50;;
71679;SDS011;59512;42.662;23.254;2023-01-08T07:39:33;48.77;;;28.60;;
71679;SDS011;59512;42.662;23.254;2023-01-08T07:41:58;49.43;;;27.93;;
71679;SDS011;59512;42.662;23.254;2023-01-08T07:44:23;48.37;;;28.37;;
71679;SDS011;59512;42.662;23.254;2023-01-08T07:46:49;50.08;;;29.45;;
71679;SDS011;59512;42.662;23.254;2023-01-08T07:49:14;53.90;;;32.47;;
71679;SDS011;59512;42.662;23.254;2023-01-08T07:51:40;56.77;;;33.13;;
71679;SDS011;59512;42.662;23.254;2023-01-08T07:54:05;55.30;;;32.90;;
71679;SDS011;59512;42.662;23.254;2023-01-08T07:56:30;57.63;;;35.43;;
71679;SDS011;59512;42.662;23.254;2023-01-08T07:58:56;52.38;;;31.40;;
71679;SDS011;59512;42.662;23.254;2023-01-08T08:01:21;58.80;;;34.10;;
71679;SDS011;59512;42.662;23.254;2023-01-08T08:03:47;58.73;;;33.97;;
71679;SDS011;59512;42.662;23.254;2023-01-08T08:06:13;52.85;;;32.10;;
71679;SDS011;59512;42.662;23.254;2023-01-08T08:08:38;87.73;;;48.47;;
71679;SDS011;59512;42.662;23.254;2023-01-08T08:11:04;72.33;;;40.43;;
71679;SDS011;59512;42.662;23.254;2023-01-08T08:13:29;61.53;;;35.40;;
71679;SDS011;59512;42.662;23.254;2023-01-08T08:15:55;49.00;;;29.80;;
71679;SDS011;59512;42.662;23.254;2023-01-08T08:18:28;50.97;;;30.85;;
71679;SDS011;59512;42.662;23.254;2023-01-08T08:20:53;51.38;;;31.30;;
71679;SDS011;59512;42.662;23.254;2023-01-08T08:23:19;58.70;;;33.60;;
71679;SDS011;59512;42.662;23.254;2023-01-08T08:25:44;53.47;;;31.50;;
71679;SDS011;59512;42.662;23.254;2023-01-08T08:28:10;49.73;;;30.83;;
71679;SDS011;59512;42.662;23.254;2023-01-08T08:30:36;53.97;;;32.03;;
71679;SDS011;59512;42.662;23.254;2023-01-08T08:33:02;55.38;;;33.13;;
71679;SDS011;59512;42.662;23.254;2023-01-08T08:35:30;55.30;;;31.85;;
71679;SDS011;59512;42.662;23.254;2023-01-08T08:37:56;56.50;;;32.60;;
71679;SDS011;59512;42.662;23.254;2023-01-08T08:40:22;50.45;;;29.95;;
71679;SDS011;59512;42.662;23.254;2023-01-08T08:42:48;47.28;;;27.75;;
71679;SDS011;59512;42.662;23.254;2023-01-08T08:45:13;56.33;;;32.70;;
71679;SDS011;59512;42.662;23.254;2023-01-08T08:47:39;52.13;;;31.70;;
71679;SDS011;59512;42.662;23.254;2023-01-08T08:50:05;49.07;;;29.93;;
71679;SDS011;59512;42.662;23.254;2023-01-08T08:52:31;51.22;;;30.17;;
71679;SDS011;59512;42.662;23.254;2023-01-08T08:54:57;48.20;;;29.48;;
71679;SDS011;59512;42.662;23.254;2023-01-08T08:57:23;48.53;;;29.20;;
71679;SDS011;59512;42.662;23.254;2023-01-08T08:59:49;49.05;;;28.70;;
71679;SDS011;59512;42.662;23.254;2023-01-08T09:02:14;50.40;;;31.33;;
71679;SDS011;59512;42.662;23.254;2023-01-08T09:04:40;54.03;;;29.73;;
71679;SDS011;59512;42.662;23.254;2023-01-08T09:07:05;47.30;;;28.30;;
71679;SDS011;59512;42.662;23.254;2023-01-08T09:09:30;46.25;;;28.10;;
71679;SDS011;59512;42.662;23.254;2023-01-08T09:11:56;46.57;;;28.03;;
71679;SDS011;59512;42.662;23.254;2023-01-08T09:14:21;45.27;;;26.90;;
71679;SDS011;59512;42.662;23.254;2023-01-08T09:16:47;42.23;;;26.37;;
71679;SDS011;59512;42.662;23.254;2023-01-08T09:19:12;43.27;;;27.57;;
71679;SDS011;59512;42.662;23.254;2023-01-08T09:21:38;48.47;;;26.33;;
71679;SDS011;59512;42.662;23.254;2023-01-08T09:24:03;41.93;;;25.23;;
71679;SDS011;59512;42.662;23.254;2023-01-08T09:26:29;38.73;;;25.87;;
71679;SDS011;59512;42.662;23.254;2023-01-08T09:28:55;42.25;;;24.85;;
71679;SDS011;59512;42.662;23.254;2023-01-08T09:31:23;41.93;;;24.63;;
71679;SDS011;59512;42.662;23.254;2023-01-08T09:33:49;51.47;;;26.88;;
71679;SDS011;59512;42.662;23.254;2023-01-08T09:36:15;44.45;;;26.65;;
71679;SDS011;59512;42.662;23.254;2023-01-08T09:38:40;42.38;;;24.98;;
71679;SDS011;59512;42.662;23.254;2023-01-08T09:41:11;39.92;;;25.08;;
71679;SDS011;59512;42.662;23.254;2023-01-08T09:43:40;39.17;;;23.23;;
71679;SDS011;59512;42.662;23.254;2023-01-08T09:46:07;41.83;;;24.13;;
71679;SDS011;59512;42.662;23.254;2023-01-08T09:48:35;39.47;;;23.27;;
71679;SDS011;59512;42.662;23.254;2023-01-08T09:51:01;39.22;;;23.75;;
71679;SDS011;59512;42.662;23.254;2023-01-08T09:53:27;36.97;;;23.42;;
71679;SDS011;59512;42.662;23.254;2023-01-08T09:55:54;41.70;;;23.07;;
71679;SDS011;59512;42.662;23.254;2023-01-08T10:00:54;39.35;;;23.05;;
71679;SDS011;59512;42.662;23.254;2023-01-08T10:03:19;37.40;;;23.13;;
71679;SDS011;59512;42.662;23.254;2023-01-08T10:05:47;37.30;;;22.42;;
71679;SDS011;59512;42.662;23.254;2023-01-08T10:08:13;36.33;;;22.13;;
71679;SDS011;59512;42.662;23.254;2023-01-08T10:10:38;36.27;;;22.70;;
71679;SDS011;59512;42.662;23.254;2023-01-08T10:13:05;37.88;;;22.70;;
71679;SDS011;59512;42.662;23.254;2023-01-08T10:15:31;38.67;;;21.92;;
71679;SDS011;59512;42.662;23.254;2023-01-08T10:18:01;35.90;;;21.77;;
71679;SDS011;59512;42.662;23.254;2023-01-08T10:20:45;36.05;;;22.52;;
71679;SDS011;59512;42.662;23.254;2023-01-08T10:23:11;35.60;;;20.90;;
71679;SDS011;59512;42.662;23.254;2023-01-08T10:25:57;36.53;;;21.90;;
71679;SDS011;59512;42.662;23.254;2023-01-08T10:28:25;35.67;;;21.30;;
71679;SDS011;59512;42.662;23.254;2023-01-08T10:30:58;36.40;;;21.42;;
71679;SDS011;59512;42.662;23.254;2023-01-08T10:33:29;35.63;;;21.52;;
71679;SDS011;59512;42.662;23.254;2023-01-08T10:36:02;36.65;;;22.67;;
71679;SDS011;59512;42.662;23.254;2023-01-08T10:38:31;31.80;;;21.02;;
71679;SDS011;59512;42.662;23.254;2023-01-08T10:41:02;43.93;;;24.53;;
71679;SDS011;59512;42.662;23.254;2023-01-08T10:43:50;32.15;;;21.27;;
71679;SDS011;59512;42.662;23.254;2023-01-08T10:46:21;38.22;;;21.27;;
71679;SDS011;59512;42.662;23.254;2023-01-08T10:48:53;40.53;;;22.27;;
71679;SDS011;59512;42.662;23.254;2023-01-08T10:51:21;42.90;;;26.25;;
71679;SDS011;59512;42.662;23.254;2023-01-08T10:53:51;34.07;;;21.17;;
71679;SDS011;59512;42.662;23.254;2023-01-08T10:58:47;37.08;;;22.70;;
71679;SDS011;59512;42.662;23.254;2023-01-08T11:01:21;36.20;;;21.58;;
71679;SDS011;59512;42.662;23.254;2023-01-08T11:03:55;35.23;;;21.60;;
71679;SDS011;59512;42.662;23.254;2023-01-08T11:06:26;36.72;;;22.67;;
71679;SDS011;59512;42.662;23.254;2023-01-08T11:09:02;41.92;;;25.83;;
71679;SDS011;59512;42.662;23.254;2023-01-08T11:11:32;40.95;;;26.35;;
71679;SDS011;59512;42.662;23.254;2023-01-08T11:13:59;38.67;;;25.83;;
71679;SDS011;59512;42.662;23.254;2023-01-08T11:16:36;43.93;;;25.13;;
71679;SDS011;59512;42.662;23.254;2023-01-08T11:19:03;42.53;;;25.58;;
71679;SDS011;59512;42.662;23.254;2023-01-08T11:21:30;37.05;;;24.08;;
71679;SDS011;59512;42.662;23.254;2023-01-08T11:26:45;40.42;;;25.55;;
71679;SDS011;59512;42.662;23.254;2023-01-08T11:29:15;46.67;;;26.97;;
71679;SDS011;59512;42.662;23.254;2023-01-08T11:31:49;39.42;;;25.90;;
71679;SDS011;59512;42.662;23.254;2023-01-08T11:37:19;46.08;;;28.02;;
71679;SDS011;59512;42.662;23.254;2023-01-08T11:39:50;46.83;;;28.58;;
71679;SDS011;59512;42.662;23.254;2023-01-08T11:56:28;46.83;;;27.33;;
71679;SDS011;59512;42.662;23.254;2023-01-08T12:02:03;45.40;;;27.77;;
71679;SDS011;59512;42.662;23.254;2023-01-08T12:10:08;44.57;;;25.77;;
71679;SDS011;59512;42.662;23.254;2023-01-08T12:13:07;40.80;;;26.75;;
71679;SDS011;59512;42.662;23.254;2023-01-08T12:15:42;44.15;;;26.33;;
71679;SDS011;59512;42.662;23.254;2023-01-08T12:24:34;42.93;;;26.13;;
71679;SDS011;59512;42.662;23.254;2023-01-08T12:29:39;43.15;;;27.02;;
71679;SDS011;59512;42.662;23.254;2023-01-08T12:37:32;43.87;;;26.90;;
71679;SDS011;59512;42.662;23.254;2023-01-08T12:40:03;44.55;;;27.27;;
71679;SDS011;59512;42.662;23.254;2023-01-08T12:42:37;42.42;;;26.55;;
71679;SDS011;59512;42.662;23.254;2023-01-08T12:45:06;45.80;;;27.23;;
71679;SDS011;59512;42.662;23.254;2023-01-08T12:47:39;40.85;;;24.38;;
71679;SDS011;59512;42.662;23.254;2023-01-08T12:53:01;38.55;;;24.30;;
71679;SDS011;59512;42.662;23.254;2023-01-08T12:58:32;50.28;;;28.27;;
71679;SDS011;59512;42.662;23.254;2023-01-08T13:01:18;39.92;;;26.02;;
71679;SDS011;59512;42.662;23.254;2023-01-08T13:03:54;45.77;;;28.07;;
71679;SDS011;59512;42.662;23.254;2023-01-08T13:06:22;45.10;;;27.42;;
71679;SDS011;59512;42.662;23.254;2023-01-08T13:08:48;45.95;;;26.58;;
71679;SDS011;59512;42.662;23.254;2023-01-08T13:11:25;43.97;;;26.50;;
71679;SDS011;59512;42.662;23.254;2023-01-08T13:13:59;45.33;;;27.35;;
71679;SDS011;59512;42.662;23.254;2023-01-08T13:16:44;44.15;;;27.73;;
71679;SDS011;59512;42.662;23.254;2023-01-08T13:21:51;41.97;;;26.73;;
71679;SDS011;59512;42.662;23.254;2023-01-08T13:24:28;45.03;;;28.90;;
71679;SDS011;59512;42.662;23.254;2023-01-08T13:27:21;42.45;;;26.67;;
71679;SDS011;59512;42.662;23.254;2023-01-08T13:29:52;44.63;;;26.95;;
71679;SDS011;59512;42.662;23.254;2023-01-08T13:35:20;45.20;;;27.05;;
71679;SDS011;59512;42.662;23.254;2023-01-08T13:38:35;38.90;;;24.08;;
71679;SDS011;59512;42.662;23.254;2023-01-08T13:45:39;37.35;;;21.80;;
71679;SDS011;59512;42.662;23.254;2023-01-08T13:48:05;35.70;;;21.08;;
71679;SDS011;59512;42.662;23.254;2023-01-08T13:50:30;27.93;;;16.23;;
71679;SDS011;59512;42.662;23.254;2023-01-08T13:52:57;23.98;;;14.88;;
71679;SDS011;59512;42.662;23.254;2023-01-08T13:55:34;27.00;;;15.07;;
71679;SDS011;59512;42.662;23.254;2023-01-08T13:58:04;27.02;;;16.70;;
71679;SDS011;59512;42.662;23.254;2023-01-08T14:06:06;30.65;;;16.52;;
71679;SDS011;59512;42.662;23.254;2023-01-08T14:08:34;30.23;;;16.77;;
71679;SDS011;59512;42.662;23.254;2023-01-08T14:11:00;37.23;;;18.63;;
71679;SDS011;59512;42.662;23.254;2023-01-08T14:13:28;33.75;;;17.35;;
71679;SDS011;59512;42.662;23.254;2023-01-08T14:15:56;33.35;;;17.48;;
71679;SDS011;59512;42.662;23.254;2023-01-08T14:18:25;33.70;;;19.37;;
71679;SDS011;59512;42.662;23.254;2023-01-08T14:20:52;40.15;;;21.40;;
71679;SDS011;59512;42.662;23.254;2023-01-08T14:23:19;39.72;;;21.95;;
71679;SDS011;59512;42.662;23.254;2023-01-08T14:25:48;38.20;;;20.40;;
71679;SDS011;59512;42.662;23.254;2023-01-08T14:28:15;40.77;;;22.80;;
71679;SDS011;59512;42.662;23.254;2023-01-08T14:33:13;42.78;;;22.20;;
71679;SDS011;59512;42.662;23.254;2023-01-08T14:35:39;49.95;;;27.13;;
71679;SDS011;59512;42.662;23.254;2023-01-08T14:38:05;41.37;;;22.47;;
71679;SDS011;59512;42.662;23.254;2023-01-08T14:40:36;55.42;;;28.08;;
71679;SDS011;59512;42.662;23.254;2023-01-08T14:43:08;36.22;;;20.48;;
71679;SDS011;59512;42.662;23.254;2023-01-08T14:45:38;28.40;;;15.63;;
71679;SDS011;59512;42.662;23.254;2023-01-08T14:48:28;28.42;;;17.85;;
71679;SDS011;59512;42.662;23.254;2023-01-08T14:51:07;26.90;;;15.00;;
71679;SDS011;59512;42.662;23.254;2023-01-08T14:53:36;29.10;;;16.48;;
71679;SDS011;59512;42.662;23.254;2023-01-08T14:56:05;37.05;;;20.60;;
71679;SDS011;59512;42.662;23.254;2023-01-08T14:58:36;56.53;;;29.47;;
71679;SDS011;59512;42.662;23.254;2023-01-08T15:01:05;68.72;;;36.03;;
71679;SDS011;59512;42.662;23.254;2023-01-08T15:03:37;61.70;;;28.50;;
71679;SDS011;59512;42.662;23.254;2023-01-08T15:06:05;57.95;;;24.50;;
71679;SDS011;59512;42.662;23.254;2023-01-08T15:08:38;39.23;;;18.43;;
71679;SDS011;59512;42.662;23.254;2023-01-08T15:11:21;40.72;;;20.95;;
71679;SDS011;59512;42.662;23.254;2023-01-08T15:13:48;32.60;;;17.75;;
71679;SDS011;59512;42.662;23.254;2023-01-08T15:18:59;73.60;;;31.63;;
71679;SDS011;59512;42.662;23.254;2023-01-08T15:21:25;71.67;;;32.60;;
71679;SDS011;59512;42.662;23.254;2023-01-08T15:23:51;70.53;;;32.38;;
71679;SDS011;59512;42.662;23.254;2023-01-08T15:26:19;67.13;;;32.30;;
71679;SDS011;59512;42.662;23.254;2023-01-08T15:28:52;74.20;;;36.03;;
71679;SDS011;59512;42.662;23.254;2023-01-08T15:31:44;104.05;;;48.88;;
71679;SDS011;59512;42.662;23.254;2023-01-08T15:34:10;79.28;;;38.25;;
71679;SDS011;59512;42.662;23.254;2023-01-08T15:36:36;54.37;;;27.67;;
71679;SDS011;59512;42.662;23.254;2023-01-08T15:39:02;55.97;;;29.20;;
71679;SDS011;59512;42.662;23.254;2023-01-08T15:41:31;68.78;;;32.05;;
71679;SDS011;59512;42.662;23.254;2023-01-08T15:44:16;71.95;;;31.63;;
71679;SDS011;59512;42.662;23.254;2023-01-08T15:46:42;38.93;;;21.47;;
71679;SDS011;59512;42.662;23.254;2023-01-08T15:49:07;40.10;;;19.83;;
71679;SDS011;59512;42.662;23.254;2023-01-08T15:51:33;111.13;;;66.37;;